Time;durP1;ratioP1;P1;durP2;ratioP2;P2;SDS_P1;SDS_P2;PMS_P1;PMS_P2;Temp;Humidity;BMP_temperature;BMP_pressure;BME280_temperature;BME280_humidity;BME280_pressure;Samples;Min_cycle;Max_cycle;Signal;HPM_P1;HPM_P2
2021/03/16 00:04:01;;;;;;;1.53;0.73;;;20.30;50.90;;;;;;10416477;28;20252;-25
2021/03/16 00:09:22;;;;;;;1.73;0.80;;;20.20;51.10;;;;;;10415170;28;20577;-25
2021/03/16 00:14:44;;;;;;;1.73;0.60;;;20.20;51.10;;;;;;10415160;28;20221;-25
2021/03/16 00:20:08;;;;;;;2.43;0.87;;;20.20;51.10;;;;;;10405432;28;20222;-25
2021/03/16 00:25:29;;;;;;;2.07;0.73;;;20.10;51.10;;;;;;10389334;28;20647;-25
2021/03/16 00:30:51;;;;;;;2.27;1.00;;;20.10;51.20;;;;;;10414667;28;20592;-25
2021/03/16 00:36:13;;;;;;;2.57;1.13;;;20.00;51.30;;;;;;10414441;28;20217;-27
2021/03/16 00:41:35;;;;;;;2.27;1.00;;;20.00;51.30;;;;;;10412842;28;20255;-26
2021/03/16 00:46:56;;;;;;;1.90;0.90;;;20.10;51.20;;;;;;10413194;28;20568;-25
2021/03/16 00:52:19;;;;;;;2.23;0.90;;;20.00;51.20;;;;;;10413582;28;20220;-25
2021/03/16 00:57:40;;;;;;;2.13;0.97;;;20.00;51.40;;;;;;10413094;28;20201;-25
2021/03/16 01:03:02;;;;;;;1.30;0.80;;;19.90;51.90;;;;;;10412973;28;20227;-25
2021/03/16 01:08:25;;;;;;;2.20;0.90;;;19.90;51.30;;;;;;10413687;28;20190;-25
2021/03/16 01:13:46;;;;;;;2.30;0.80;;;19.90;51.90;;;;;;10402828;28;20229;-25
2021/03/16 01:19:08;;;;;;;2.60;0.93;;;20.00;51.50;;;;;;10392748;28;20264;-25
2021/03/16 01:24:30;;;;;;;3.40;0.90;;;19.90;51.60;;;;;;10372030;28;20224;-25
2021/03/16 01:29:52;;;;;;;3.20;0.77;;;19.90;51.40;;;;;;10371673;28;20547;-26
2021/03/16 01:35:15;;;;;;;2.90;0.80;;;19.90;51.30;;;;;;10371969;28;20220;-25
2021/03/16 01:40:40;;;;;;;1.00;0.67;;;19.90;51.50;;;;;;10384027;28;20603;-26
2021/03/16 01:46:01;;;;;;;1.57;0.70;;;19.80;51.50;;;;;;10411356;28;20276;-25
2021/03/16 01:51:43;;;;;;;1.73;0.70;;;19.90;51.50;;;;;;10411157;28;20208;-26
2021/03/16 01:57:35;;;;;;;1.33;0.60;;;19.90;51.30;;;;;;10411099;28;20673;-26
2021/03/16 02:03:18;;;;;;;1.47;0.63;;;19.90;51.50;;;;;;10410622;28;20788;-26
2021/03/16 02:08:46;;;;;;;2.17;0.87;;;19.80;51.60;;;;;;10410885;28;20624;-25
2021/03/16 02:14:15;;;;;;;3.20;0.93;;;19.80;51.50;;;;;;10401991;28;20596;-27
2021/03/16 02:20:00;;;;;;;1.53;0.50;;;19.80;51.40;;;;;;10405609;28;20220;-26
2021/03/16 02:25:57;;;;;;;4.63;1.00;;;19.80;51.40;;;;;;10411157;28;20224;-27
2021/03/16 02:31:20;;;;;;;0.93;0.50;;;19.80;51.50;;;;;;10399405;28;20201;-27
2021/03/16 02:36:42;;;;;;;1.47;0.70;;;19.80;51.60;;;;;;10412122;28;20218;-27
2021/03/16 02:42:06;;;;;;;1.87;0.60;;;19.80;51.50;;;;;;10411221;28;20260;-26
2021/03/16 02:47:29;;;;;;;1.80;0.80;;;19.70;51.60;;;;;;10410139;28;20200;-26
2021/03/16 02:52:51;;;;;;;1.83;0.70;;;19.70;51.70;;;;;;10409750;28;20570;-25
2021/03/16 02:58:14;;;;;;;1.47;0.80;;;19.70;51.60;;;;;;10410249;28;20211;-25
2021/03/16 03:03:39;;;;;;;3.10;0.70;;;19.70;51.50;;;;;;10410752;28;20212;-26
2021/03/16 03:09:02;;;;;;;1.60;0.67;;;19.70;51.60;;;;;;10409620;28;20696;-25
2021/03/16 03:14:24;;;;;;;1.83;0.70;;;19.70;51.70;;;;;;10417174;28;20218;-25
2021/03/16 03:19:46;;;;;;;1.27;0.43;;;19.60;51.70;;;;;;10416364;28;20262;-25
2021/03/16 03:25:14;;;;;;;2.00;0.70;;;19.70;51.50;;;;;;10436711;23;20233;-27
2021/03/16 03:30:36;;;;;;;1.93;0.93;;;19.70;51.50;;;;;;10415673;28;20676;-26
2021/03/16 03:36:01;;;;;;;1.30;0.70;;;19.60;51.50;;;;;;10416149;28;20217;-27
2021/03/16 03:41:26;;;;;;;3.30;0.93;;;19.60;51.60;;;;;;10414875;28;20581;-29
2021/03/16 03:46:49;;;;;;;2.10;0.60;;;19.60;51.50;;;;;;10415006;28;20216;-28
2021/03/16 03:52:14;;;;;;;2.10;0.73;;;19.60;51.40;;;;;;10415787;28;20203;-31
2021/03/16 03:57:36;;;;;;;1.63;0.80;;;19.60;51.40;;;;;;10415979;28;20200;-29
2021/03/16 04:02:59;;;;;;;2.20;0.80;;;19.60;51.60;;;;;;10415427;28;21071;-31
2021/03/16 04:08:23;;;;;;;1.83;0.83;;;19.60;51.60;;;;;;10415833;28;20981;-25
2021/03/16 04:13:45;;;;;;;1.47;0.70;;;19.60;51.50;;;;;;10421597;28;20218;-25
2021/03/16 04:19:07;;;;;;;2.27;0.77;;;19.60;51.50;;;;;;10434613;28;20217;-30
2021/03/16 04:24:30;;;;;;;2.40;0.70;;;19.60;51.60;;;;;;10453510;28;20274;-27
2021/03/16 04:29:52;;;;;;;3.00;0.80;;;19.60;51.60;;;;;;10443838;28;20201;-26
2021/03/16 04:35:14;;;;;;;2.07;0.80;;;19.60;51.60;;;;;;10454419;28;20219;-30
2021/03/16 04:40:36;;;;;;;1.50;0.57;;;19.60;51.40;;;;;;10453846;28;20217;-27
2021/03/16 04:45:58;;;;;;;1.97;0.80;;;19.70;51.30;;;;;;10453885;28;20251;-28
2021/03/16 04:51:19;;;;;;;2.23;0.73;;;19.80;51.80;;;;;;10453953;28;20572;-30
2021/03/16 04:56:42;;;;;;;4.27;1.20;;;19.80;51.10;;;;;;10453520;28;20223;-29
2021/03/16 05:02:04;;;;;;;2.50;0.80;;;19.90;51.00;;;;;;10454174;28;20231;-27
2021/03/16 05:07:25;;;;;;;2.47;0.80;;;19.90;50.90;;;;;;10453039;28;20209;-28
2021/03/16 05:12:48;;;;;;;2.33;0.97;;;19.90;50.90;;;;;;10424431;28;20221;-27
2021/03/16 05:18:09;;;;;;;2.70;0.90;;;19.80;50.90;;;;;;10425058;28;20228;-27
2021/03/16 05:23:31;;;;;;;2.23;0.70;;;19.80;51.00;;;;;;10451819;28;20683;-28
2021/03/16 05:28:53;;;;;;;1.40;0.70;;;19.80;50.80;;;;;;10451669;28;20199;-32
2021/03/16 05:34:15;;;;;;;1.90;0.80;;;19.90;50.80;;;;;;10451864;28;20707;-28
2021/03/16 05:39:37;;;;;;;1.60;0.70;;;19.90;50.80;;;;;;10450699;28;20210;-29
2021/03/16 05:45:00;;;;;;;1.60;0.63;;;19.90;50.80;;;;;;10451770;28;20210;-29
2021/03/16 05:50:22;;;;;;;2.30;0.70;;;19.90;50.80;;;;;;10450805;28;20199;-28
2021/03/16 05:55:44;;;;;;;1.67;0.60;;;19.90;50.80;;;;;;10451690;28;20610;-28
2021/03/16 06:01:06;;;;;;;2.40;0.60;;;19.90;50.70;;;;;;10451494;28;20249;-29
2021/03/16 06:06:30;;;;;;;3.17;0.87;;;20.00;50.80;;;;;;10450482;28;20220;-30
2021/03/16 06:11:52;;;;;;;2.17;0.90;;;20.00;50.70;;;;;;10428767;28;20192;-33
2021/03/16 06:17:16;;;;;;;2.83;1.00;;;19.90;50.60;;;;;;10441779;28;20250;-28
2021/03/16 06:22:37;;;;;;;2.23;0.60;;;20.00;50.90;;;;;;10450412;28;20213;-31
2021/03/16 06:28:00;;;;;;;1.47;0.70;;;20.00;50.80;;;;;;10450240;28;20193;-29
2021/03/16 06:33:25;;;;;;;2.17;1.10;;;19.90;50.80;;;;;;10435696;28;20218;-32
2021/03/16 06:38:46;;;;;;;3.03;0.80;;;19.90;50.80;;;;;;10450655;28;20209;-29
2021/03/16 06:44:08;;;;;;;3.50;1.10;;;20.00;50.70;;;;;;10458825;28;20258;-29
2021/03/16 06:49:33;;;;;;;1.90;0.83;;;20.00;50.70;;;;;;10458117;28;20672;-26
2021/03/16 06:54:54;;;;;;;3.90;1.10;;;20.00;50.90;;;;;;10458391;28;20223;-26
2021/03/16 07:00:17;;;;;;;4.27;1.10;;;20.00;50.90;;;;;;10457719;28;20217;-27
2021/03/16 07:05:40;;;;;;;2.30;1.00;;;20.00;50.90;;;;;;10457494;28;20219;-27
2021/03/16 07:11:03;;;;;;;7.53;1.73;;;20.00;50.90;;;;;;10421388;28;20627;-29
2021/03/16 07:16:25;;;;;;;5.57;1.63;;;20.10;46.10;;;;;;10423891;28;20223;-30
2021/03/16 07:21:51;;;;;;;7.83;1.63;;;20.20;44.00;;;;;;10434653;28;20217;-28
2021/03/16 07:27:12;;;;;;;8.13;2.30;;;20.20;43.20;;;;;;10380732;28;20231;-28
2021/03/16 07:32:34;;;;;;;6.17;1.93;;;20.20;42.10;;;;;;10374545;28;20209;-27
2021/03/16 07:38:01;;;;;;;7.10;2.00;;;20.10;41.80;;;;;;10419693;28;20239;-32
2021/03/16 07:43:31;;;;;;;5.60;1.73;;;20.10;41.90;;;;;;10456138;28;20591;-27
2021/03/16 07:48:52;;;;;;;4.53;1.40;;;20.30;41.60;;;;;;10390474;28;20201;-28
2021/03/16 07:54:20;;;;;;;5.93;1.73;;;20.30;41.90;;;;;;10380748;28;20226;-28
2021/03/16 07:59:41;;;;;;;6.77;1.97;;;20.20;41.50;;;;;;10415043;28;20296;-29
2021/03/16 08:05:14;;;;;;;6.57;1.93;;;20.20;41.30;;;;;;10414212;28;20592;-31
2021/03/16 08:10:36;;;;;;;5.37;1.60;;;20.30;41.20;;;;;;10419600;28;20199;-30
2021/03/16 08:15:58;;;;;;;6.43;1.53;;;20.20;40.90;;;;;;10439141;28;20225;-28
2021/03/16 08:21:20;;;;;;;6.43;1.60;;;20.10;40.50;;;;;;10409536;28;20222;-28
2021/03/16 08:26:46;;;;;;;3.97;1.40;;;20.10;40.70;;;;;;10372554;28;20238;-31
2021/03/16 08:32:14;;;;;;;3.80;1.27;;;20.20;41.30;;;;;;10383517;28;20201;-28
2021/03/16 08:37:36;;;;;;;5.03;1.63;;;20.20;41.00;;;;;;10415575;28;20703;-28
2021/03/16 08:43:01;;;;;;;5.90;1.90;;;20.20;40.60;;;;;;10414927;28;20224;-30
2021/03/16 08:48:26;;;;;;;5.43;1.60;;;20.20;40.10;;;;;;10372302;28;20222;-25
2021/03/16 08:53:48;;;;;;;5.37;1.50;;;20.20;40.70;;;;;;10388519;28;20219;-27
2021/03/16 08:59:13;;;;;;;8.07;1.60;;;20.20;40.70;;;;;;10412546;28;20221;-31
2021/03/16 09:04:35;;;;;;;6.47;1.47;;;20.30;40.90;;;;;;10440788;28;20220;-29
2021/03/16 09:10:03;;;;;;;5.80;1.23;;;20.20;40.30;;;;;;10393521;28;20717;-32
2021/03/16 09:15:27;;;;;;;4.67;1.57;;;20.30;40.40;;;;;;10442515;28;20217;-30
2021/03/16 09:20:49;;;;;;;2.67;1.03;;;20.30;40.70;;;;;;10452902;28;20221;-34
2021/03/16 09:26:11;;;;;;;6.67;1.93;;;20.30;41.10;;;;;;10431764;23;20231;-23
2021/03/16 09:31:34;;;;;;;5.83;1.47;;;20.30;40.40;;;;;;10405813;28;20201;-25
2021/03/16 09:37:00;;;;;;;3.77;1.50;;;20.30;40.60;;;;;;10410232;28;20224;-25
2021/03/16 09:42:34;;;;;;;6.53;1.30;;;20.40;40.80;;;;;;10405904;28;20218;-24
2021/03/16 09:47:57;;;;;;;6.87;1.97;;;20.30;40.40;;;;;;10370449;28;20196;-27
2021/03/16 09:53:19;;;;;;;7.10;1.90;;;20.20;40.10;;;;;;10370487;28;20730;-26
2021/03/16 09:58:47;;;;;;;8.10;1.83;;;20.20;40.40;;;;;;10409171;28;20668;-25
2021/03/16 10:04:13;;;;;;;5.37;1.20;;;20.30;40.70;;;;;;10388259;28;20312;-24
2021/03/16 10:09:40;;;;;;;5.07;1.37;;;20.30;41.10;;;;;;10379090;28;20193;-25
2021/03/16 10:15:02;;;;;;;5.40;1.80;;;20.40;40.70;;;;;;10410662;28;20585;-24
2021/03/16 10:20:27;;;;;;;5.80;1.77;;;20.30;41.00;;;;;;10389094;28;20224;-25
2021/03/16 10:25:55;;;;;;;6.07;1.50;;;20.20;40.30;;;;;;10393588;28;20238;-24
2021/03/16 10:31:19;;;;;;;5.07;1.33;;;20.20;42.30;;;;;;10369422;28;20193;-25
2021/03/16 10:36:41;;;;;;;4.57;1.30;;;20.40;43.40;;;;;;10370603;28;20272;-25
2021/03/16 10:42:03;;;;;;;4.53;1.17;;;20.50;43.90;;;;;;10369047;28;20237;-25
2021/03/16 10:47:25;;;;;;;3.27;1.20;;;20.70;44.20;;;;;;10371855;28;20232;-24
2021/03/16 10:52:47;;;;;;;4.00;1.37;;;20.80;44.40;;;;;;10408046;28;20201;-24
2021/03/16 10:58:09;;;;;;;5.17;1.70;;;20.90;44.60;;;;;;10409868;28;20212;-24
2021/03/16 11:03:33;;;;;;;4.17;1.20;;;20.90;44.80;;;;;;10408657;28;20255;-24
2021/03/16 11:08:55;;;;;;;5.23;1.53;;;20.90;44.90;;;;;;10409696;28;20201;-25
2021/03/16 11:14:17;;;;;;;3.07;1.10;;;21.00;45.00;;;;;;10403627;28;20218;-25
2021/03/16 11:19:39;;;;;;;2.80;1.17;;;21.10;45.00;;;;;;10408653;28;20636;-25
2021/03/16 11:25:01;;;;;;;2.40;0.90;;;21.10;45.10;;;;;;10409582;28;20232;-24
2021/03/16 11:30:23;;;;;;;3.43;1.10;;;21.20;45.10;;;;;;10416740;28;20665;-24
2021/03/16 11:35:45;;;;;;;3.73;1.10;;;21.20;45.20;;;;;;10414686;28;20225;-24
2021/03/16 11:41:07;;;;;;;3.00;1.40;;;21.20;45.30;;;;;;10415465;28;20213;-24
2021/03/16 11:46:29;;;;;;;2.03;0.83;;;21.00;45.60;;;;;;10416748;28;20251;-24
2021/03/16 11:51:50;;;;;;;2.60;0.87;;;21.10;46.00;;;;;;10415793;28;20568;-25
2021/03/16 11:57:13;;;;;;;3.90;1.27;;;21.30;45.70;;;;;;10415325;28;20217;-24
2021/03/16 12:02:35;;;;;;;2.70;0.97;;;21.50;45.30;;;;;;10415686;28;20217;-24
2021/03/16 12:07:57;;;;;;;3.43;1.10;;;21.70;45.10;;;;;;10414481;28;20205;-24
2021/03/16 12:13:19;;;;;;;2.37;0.90;;;21.80;44.90;;;;;;10409171;28;20220;-25
2021/03/16 12:18:41;;;;;;;4.37;1.23;;;21.80;44.60;;;;;;10404515;28;20198;-23
2021/03/16 12:24:03;;;;;;;2.40;0.80;;;21.60;44.80;;;;;;10414352;28;20229;-26
2021/03/16 12:29:25;;;;;;;3.43;1.23;;;21.40;45.40;;;;;;10414496;28;20197;-24
2021/03/16 12:34:47;;;;;;;2.20;1.00;;;21.20;46.00;;;;;;10414057;28;20224;-25
2021/03/16 12:40:11;;;;;;;4.63;1.60;;;21.00;46.20;;;;;;10413686;28;20712;-25
2021/03/16 12:45:33;;;;;;;4.03;1.73;;;21.00;46.30;;;;;;10412791;28;20221;-25
2021/03/16 12:50:55;;;;;;;8.07;3.57;;;20.90;46.50;;;;;;10413284;28;20193;-26
2021/03/16 12:56:16;;;;;;;10.23;5.67;;;20.90;46.80;;;;;;10413341;28;20217;-24
2021/03/16 13:01:39;;;;;;;12.97;8.50;;;20.80;46.90;;;;;;10412934;28;20284;-24
2021/03/16 13:07:00;;;;;;;17.63;11.17;;;20.80;46.90;;;;;;10409756;28;20323;-25
2021/03/16 13:12:22;;;;;;;24.57;16.70;;;20.70;47.20;;;;;;10413057;28;20959;-24
2021/03/16 13:17:44;;;;;;;27.93;20.10;;;20.70;47.20;;;;;;10412541;28;20213;-25
2021/03/16 13:23:06;;;;;;;30.50;20.47;;;20.70;47.20;;;;;;10411597;28;20714;-24
2021/03/16 13:28:27;;;;;;;25.43;17.40;;;20.70;47.20;;;;;;10374767;28;20214;-25
2021/03/16 13:33:50;;;;;;;31.27;22.20;;;20.70;47.20;;;;;;10384392;28;20659;-26
2021/03/16 13:39:11;;;;;;;38.70;25.20;;;20.80;47.00;;;;;;10362664;28;20243;-27
2021/03/16 13:44:33;;;;;;;45.57;29.53;;;20.90;46.50;;;;;;10362740;28;20295;-24
2021/03/16 13:49:56;;;;;;;44.60;29.97;;;21.10;46.20;;;;;;10372165;28;20700;-24
2021/03/16 13:55:18;;;;;;;44.53;28.47;;;21.20;46.10;;;;;;10404833;28;20226;-26
2021/03/16 14:00:40;;;;;;;37.13;26.27;;;21.30;45.80;;;;;;10404736;28;20225;-26
2021/03/16 14:06:03;;;;;;;33.87;22.60;;;21.60;45.20;;;;;;10364311;28;20237;-24
2021/03/16 14:11:24;;;;;;;33.40;24.80;;;22.00;44.70;;;;;;10391129;28;20198;-25
2021/03/16 14:16:46;;;;;;;37.93;25.70;;;22.00;43.90;;;;;;10406154;28;20228;-24
2021/03/16 14:22:08;;;;;;;39.43;24.57;;;21.70;44.30;;;;;;10407090;28;20226;-25
2021/03/16 14:27:30;;;;;;;34.10;22.80;;;21.40;44.90;;;;;;10407336;28;20214;-26
2021/03/16 14:32:51;;;;;;;30.00;20.17;;;21.20;45.20;;;;;;10407925;28;20677;-24
2021/03/16 14:38:14;;;;;;;29.57;20.13;;;21.10;45.30;;;;;;10408669;28;20460;-24
2021/03/16 14:43:35;;;;;;;25.37;17.57;;;21.10;45.70;;;;;;10409792;28;20232;-24
2021/03/16 14:48:57;;;;;;;23.93;16.50;;;21.10;45.80;;;;;;10409226;28;20221;-25
2021/03/16 14:54:20;;;;;;;23.93;15.60;;;21.00;46.10;;;;;;10407050;28;20217;-24
2021/03/16 14:59:41;;;;;;;23.37;15.23;;;21.00;46.30;;;;;;10409196;28;20529;-24
2021/03/16 15:05:04;;;;;;;21.00;13.80;;;21.00;46.20;;;;;;10415029;28;20221;-24
2021/03/16 15:10:26;;;;;;;20.50;13.33;;;21.00;46.30;;;;;;10417155;28;20208;-25
2021/03/16 15:15:48;;;;;;;20.07;13.27;;;20.90;46.50;;;;;;10416900;28;20225;-23
2021/03/16 15:21:10;;;;;;;19.17;12.10;;;20.90;46.60;;;;;;10416111;28;20221;-24
2021/03/16 15:26:32;;;;;;;16.60;10.50;;;21.00;46.40;;;;;;10412803;28;20229;-26
2021/03/16 15:31:54;;;;;;;16.63;11.37;;;20.90;46.60;;;;;;10426738;28;20197;-25
2021/03/16 15:37:16;;;;;;;16.60;10.90;;;20.90;46.60;;;;;;10395335;28;20218;-25
2021/03/16 15:42:38;;;;;;;15.47;10.23;;;20.90;46.50;;;;;;10402450;28;20213;-24
2021/03/16 15:48:00;;;;;;;16.40;9.90;;;20.90;46.50;;;;;;10415497;28;20260;-25
2021/03/16 15:53:21;;;;;;;14.87;10.00;;;20.80;46.60;;;;;;10415785;28;20217;-25
2021/03/16 15:58:44;;;;;;;14.27;9.33;;;20.90;46.50;;;;;;10407247;28;20198;-26
2021/03/16 16:04:07;;;;;;;11.63;8.33;;;20.90;46.50;;;;;;10391928;28;20226;-24
2021/03/16 16:09:28;;;;;;;12.50;8.10;;;20.90;46.50;;;;;;10391333;28;20208;-24
2021/03/16 16:14:51;;;;;;;10.50;7.63;;;20.90;46.60;;;;;;10414944;28;20221;-26
2021/03/16 16:20:14;;;;;;;12.23;8.20;;;20.90;46.40;;;;;;10416267;28;20225;-26
2021/03/16 16:25:36;;;;;;;12.37;7.03;;;20.80;46.50;;;;;;10414700;28;20233;-25
2021/03/16 16:30:59;;;;;;;9.73;6.87;;;20.80;46.70;;;;;;10413349;28;20664;-24
2021/03/16 16:36:21;;;;;;;10.97;7.07;;;20.90;46.60;;;;;;10408231;28;20224;-24
2021/03/16 16:41:42;;;;;;;8.33;5.47;;;20.80;46.80;;;;;;10380661;28;20218;-25
2021/03/16 16:47:05;;;;;;;9.70;6.50;;;20.80;46.80;;;;;;10401480;28;20217;-25
2021/03/16 16:52:26;;;;;;;7.87;5.57;;;21.00;46.50;;;;;;10403241;28;20193;-26
2021/03/16 16:57:48;;;;;;;8.63;5.60;;;21.20;46.30;;;;;;10403379;28;20688;-24
2021/03/16 17:03:10;;;;;;;7.90;5.17;;;21.10;46.30;;;;;;10411719;28;20225;-25
2021/03/16 17:08:32;;;;;;;8.30;5.07;;;21.10;46.50;;;;;;10412377;28;20193;-25
2021/03/16 17:13:53;;;;;;;7.80;5.57;;;21.00;46.60;;;;;;10411719;28;20432;-25
2021/03/16 17:19:16;;;;;;;5.80;4.00;;;21.20;46.50;;;;;;10411183;28;20204;-24
2021/03/16 17:24:38;;;;;;;8.27;4.17;;;20.90;46.80;;;;;;10409249;28;20226;-25
2021/03/16 17:29:59;;;;;;;7.27;4.23;;;20.90;47.00;;;;;;10393946;28;20205;-24
2021/03/16 17:35:22;;;;;;;5.00;3.37;;;20.90;47.20;;;;;;10392009;28;20221;-24
2021/03/16 17:40:44;;;;;;;7.33;3.73;;;20.90;47.20;;;;;;10410956;28;20225;-25
2021/03/16 17:46:06;;;;;;;5.70;3.40;;;20.90;47.30;;;;;;10410638;28;20225;-25
2021/03/16 17:51:29;;;;;;;6.73;3.60;;;20.90;47.30;;;;;;10409969;28;20193;-25
2021/03/16 17:56:50;;;;;;;5.03;3.20;;;20.90;47.30;;;;;;10405805;28;20703;-25
2021/03/16 18:02:12;;;;;;;7.20;3.47;;;20.90;47.50;;;;;;10392044;28;20221;-25
2021/03/16 18:07:34;;;;;;;5.77;3.40;;;20.90;47.60;;;;;;10402306;28;20229;-25
2021/03/16 18:12:56;;;;;;;5.27;3.17;;;20.90;47.40;;;;;;10401957;28;20209;-24
2021/03/16 18:18:17;;;;;;;4.97;2.87;;;20.90;47.60;;;;;;10383960;28;20601;-25
2021/03/16 18:23:40;;;;;;;4.43;3.13;;;20.80;47.80;;;;;;10409984;28;20220;-24
2021/03/16 18:29:01;;;;;;;5.63;3.00;;;20.90;47.80;;;;;;10407188;28;20615;-24
2021/03/16 18:34:23;;;;;;;7.90;3.60;;;20.90;47.60;;;;;;10377004;28;20218;-25
2021/03/16 18:39:45;;;;;;;4.87;2.73;;;21.00;47.40;;;;;;10398155;28;20670;-24
2021/03/16 18:45:08;;;;;;;5.53;2.60;;;21.00;47.40;;;;;;10385384;28;20697;-24
2021/03/16 18:50:29;;;;;;;3.57;2.50;;;21.00;47.50;;;;;;10377530;28;20673;-26
2021/03/16 18:55:52;;;;;;;5.40;2.67;;;20.80;47.60;;;;;;10396857;28;20218;-24
2021/03/16 19:01:13;;;;;;;4.77;2.40;;;20.80;47.60;;;;;;10416144;28;20245;-25
2021/03/16 19:06:35;;;;;;;4.53;2.57;;;20.80;48.30;;;;;;10416077;28;20588;-25
2021/03/16 19:11:57;;;;;;;3.73;2.53;;;20.70;47.90;;;;;;10416958;28;20194;-26
2021/03/16 19:17:19;;;;;;;4.30;2.37;;;20.60;48.20;;;;;;10416312;28;20216;-26
2021/03/16 19:22:41;;;;;;;3.97;2.13;;;20.60;48.30;;;;;;10407155;28;20222;-26
2021/03/16 19:28:04;;;;;;;4.97;2.23;;;20.70;48.20;;;;;;10376245;28;20190;-27
2021/03/16 19:33:27;;;;;;;3.70;2.00;;;20.70;48.10;;;;;;10390886;28;20228;-26
2021/03/16 19:38:49;;;;;;;3.93;1.93;;;20.70;48.00;;;;;;10375811;28;20229;-26
2021/03/16 19:44:12;;;;;;;5.37;2.33;;;20.70;47.90;;;;;;10375000;28;20225;-27
2021/03/16 19:49:33;;;;;;;3.47;1.70;;;20.80;47.90;;;;;;10373841;28;20741;-26
2021/03/16 19:54:55;;;;;;;4.50;1.90;;;20.90;47.80;;;;;;10404857;28;20259;-26
2021/03/16 20:00:19;;;;;;;2.73;1.67;;;20.90;47.70;;;;;;10395124;28;20229;-27
2021/03/16 20:05:40;;;;;;;2.30;1.50;;;20.90;47.90;;;;;;10374161;28;20571;-26
2021/03/16 20:11:02;;;;;;;3.37;1.80;;;20.90;47.80;;;;;;10383845;28;20673;-24
2021/03/16 20:16:24;;;;;;;2.73;1.50;;;21.00;47.90;;;;;;10413652;28;20232;-24
2021/03/16 20:21:46;;;;;;;3.33;1.40;;;21.10;47.80;;;;;;10385662;28;20290;-24
2021/03/16 20:27:08;;;;;;;1.50;1.10;;;21.10;47.80;;;;;;10378338;28;20712;-25
2021/03/16 20:32:31;;;;;;;3.00;1.37;;;21.20;47.40;;;;;;10373437;28;20213;-24
2021/03/16 20:37:52;;;;;;;2.23;1.20;;;21.40;47.00;;;;;;10374637;28;20214;-24
2021/03/16 20:43:14;;;;;;;1.60;1.10;;;21.60;46.70;;;;;;10373345;28;20608;-24
2021/03/16 20:48:36;;;;;;;2.07;1.50;;;21.70;46.60;;;;;;10391044;28;20193;-25
2021/03/16 20:53:58;;;;;;;2.83;1.30;;;21.80;46.50;;;;;;10391966;28;20226;-24
2021/03/16 20:59:20;;;;;;;2.00;1.47;;;21.80;46.20;;;;;;10372283;28;20203;-25
2021/03/16 21:04:42;;;;;;;1.67;0.87;;;21.90;46.00;;;;;;10377204;28;20214;-25
2021/03/16 21:10:08;;;;;;;4.23;1.30;;;22.00;45.90;;;;;;10412072;28;20208;-25
2021/03/16 21:15:29;;;;;;;2.70;1.20;;;22.00;45.80;;;;;;10371777;28;20645;-24
2021/03/16 21:20:52;;;;;;;3.43;1.40;;;22.00;45.70;;;;;;10406280;28;20221;-24
2021/03/16 21:26:14;;;;;;;2.27;1.20;;;22.00;45.80;;;;;;10412122;28;20228;-25
2021/03/16 21:31:36;;;;;;;1.80;1.13;;;22.10;45.70;;;;;;10417353;23;20236;-29
2021/03/16 21:36:58;;;;;;;1.90;1.10;;;22.10;45.60;;;;;;10343380;28;20295;-29
2021/03/16 21:42:20;;;;;;;1.80;1.10;;;22.10;45.50;;;;;;10347999;28;20218;-28
2021/03/16 21:47:41;;;;;;;2.37;1.20;;;22.10;45.70;;;;;;10338901;28;20335;-27
2021/03/16 21:53:04;;;;;;;2.67;1.20;;;21.90;46.10;;;;;;10329008;28;20223;-27
2021/03/16 21:58:25;;;;;;;2.00;1.17;;;21.60;46.70;;;;;;10330024;28;20203;-27
2021/03/16 22:03:47;;;;;;;2.60;1.33;;;21.30;47.10;;;;;;10328108;28;20277;-28
2021/03/16 22:09:09;;;;;;;1.90;1.27;;;21.10;47.50;;;;;;10330467;28;20198;-28
2021/03/16 22:14:31;;;;;;;1.57;1.30;;;21.00;47.70;;;;;;10329446;28;20211;-25
2021/03/16 22:19:53;;;;;;;2.87;1.53;;;21.00;47.70;;;;;;10368906;28;20209;-26
2021/03/16 22:25:16;;;;;;;1.73;1.07;;;20.80;47.90;;;;;;10370107;28;20637;-26
2021/03/16 22:30:37;;;;;;;2.13;1.23;;;20.70;48.10;;;;;;10369465;28;20590;-28
2021/03/16 22:35:59;;;;;;;1.73;0.93;;;20.70;48.20;;;;;;10370053;28;20190;-27
2021/03/16 22:41:21;;;;;;;2.57;1.37;;;20.70;48.10;;;;;;10369685;28;20222;-28
2021/03/16 22:46:43;;;;;;;1.90;0.90;;;20.70;48.20;;;;;;10369934;28;20629;-32
2021/03/16 22:52:06;;;;;;;2.27;1.03;;;20.60;48.40;;;;;;10371041;28;20698;-29
2021/03/16 22:57:28;;;;;;;1.67;0.90;;;20.50;48.50;;;;;;10368506;28;20360;-28
2021/03/16 23:02:50;;;;;;;1.47;1.00;;;20.50;48.50;;;;;;10368554;28;20233;-27
2021/03/16 23:08:12;;;;;;;2.27;1.30;;;20.50;48.50;;;;;;10361287;28;20249;-28
2021/03/16 23:13:34;;;;;;;1.77;1.00;;;20.40;48.60;;;;;;10368888;28;20229;-26
2021/03/16 23:18:56;;;;;;;1.37;1.10;;;20.40;48.70;;;;;;10367590;28;20195;-28
2021/03/16 23:24:18;;;;;;;1.87;0.90;;;20.40;48.70;;;;;;10371777;28;20262;-25
2021/03/16 23:29:40;;;;;;;1.60;0.90;;;20.40;48.60;;;;;;10374272;28;20252;-26
2021/03/16 23:35:04;;;;;;;2.13;0.97;;;20.40;48.70;;;;;;10374832;28;20218;-29
2021/03/16 23:40:29;;;;;;;1.70;1.03;;;20.30;48.80;;;;;;10376226;28;20198;-30
2021/03/16 23:45:51;;;;;;;2.00;1.00;;;20.30;48.80;;;;;;10376238;28;20205;-29
2021/03/16 23:51:13;;;;;;;1.80;0.90;;;20.30;48.90;;;;;;10374932;28;20218;-28
2021/03/16 23:56:35;;;;;;;1.00;0.70;;;20.30;48.70;;;;;;10375376;28;20200;-28
